Aurora, CO (80010)

8:44 AM MST on February 14, 2016 (GMT -0700)
stapleton bluff lake | | Change Station
CLOSE
Current Station
Personal Weather Station
Location: Denver, CO
Elevation: 5348 ft
Nearby Weather Stations

Elev 5348 ft 39.76 °N, 104.86 °W | Updated 5 minutes ago

Partly Cloudy
Partly Cloudy
39.3 °F
Feels Like 39 °F
N
0.0
Wind Variable Wind from ESE
Gusts 3.0 mph

Today
High -- | Low -- °F
--% Chance of Precip.
Yesterday
High -- | Low -- °F
Precip. -- in
Pressure 29.88 in
Visibility 10.0 miles
Clouds Scattered Clouds 13000 ft
Mostly Cloudy 22000 ft
Windchill 39 °F
Dew Point 21 °F
Humidity 48%
Rainfall 0.00 in
Snow Depth Not available.
6:53 AM 5:34 PM
Waxing Crescent, 42% visible
METAR KBKF 141458Z 18007KT 10SM SCT130 BKN220 03/M07 A2992 RMK AO2A SLP118 T00261073 55006
Pressure 29.88 in
Visibility 10.0 miles
Clouds Scattered Clouds 13000 ft
Mostly Cloudy 22000 ft
Windchill 39 °F
Dew Point 21 °F
Humidity 48%
Rainfall 0.00 in
Snow Depth Not available.
6:53 AM 5:34 PM
Waxing Crescent, 42% visible
METAR KBKF 141458Z 18007KT 10SM SCT130 BKN220 03/M07 A2992 RMK AO2A SLP118 T00261073 55006

10-Day Weather Forecast

Almanac

Astronomy

Feb. 14, 2016 Rise Set
Actual Time
Civil Twilight
Nautical Twilight
Astronomical Twilight
Moon
Length of Visible Light
Length of Day
Tomorrow will be .
, % of the Moon is Illuminated

Today's Extremes

State Highs State Lows

Community

WunderPhotos

Upload Photos

1,892,802 photos uploaded!

WunderBlog® & News

Nearby

Air Quality

  Air Quality AQ Index Pollutant
Not available.

Snow Depth

Station Depth Elevation

Earthquake Activity

City Distance Mag. Time & Date
Minimum magnitude displayed is 2.5.

Coastal Water Temperatures

Place Temperature

Stations

Nearby Weather Stations

Station Location Temp. Windchill Dew Point Humidity Wind Precip. Elev Updated Type
                   

Watches & Warnings

There are currently no watches in effect.